Time;durP1;ratioP1;P1;durP2;ratioP2;P2;SDS_P1;SDS_P2;PMS_P1;PMS_P2;Temp;Humidity;BMP_temperature;BMP_pressure;BME280_temperature;BME280_humidity;BME280_pressure;Samples;Min_cycle;Max_cycle;Signal;HPM_P1;HPM_P2
2022/02/20 00:01:58;;;;;;;1.87;1.50;;;25.40;57.20;;;;;;5055532;28;20445;-84
2022/02/20 00:04:24;;;;;;;1.20;1.00;;;25.40;57.20;;;;;;5055490;28;20438;-84
2022/02/20 00:06:51;;;;;;;1.50;1.30;;;25.50;57.30;;;;;;5055472;28;20442;-84
2022/02/20 00:09:18;;;;;;;1.30;1.20;;;25.40;57.20;;;;;;5055521;28;20525;-83
2022/02/20 00:11:44;;;;;;;1.47;1.37;;;25.40;57.20;;;;;;5055110;28;20492;-84
2022/02/20 00:14:11;;;;;;;1.30;1.10;;;25.40;57.20;;;;;;5055382;28;20442;-84
2022/02/20 00:16:38;;;;;;;1.57;1.30;;;25.40;57.20;;;;;;5055379;28;20445;-84
2022/02/20 00:19:06;;;;;;;2.17;1.10;;;25.40;57.20;;;;;;5055342;28;20452;-84
2022/02/20 00:21:33;;;;;;;1.80;1.20;;;25.30;57.10;;;;;;5055190;28;20452;-84
2022/02/20 00:24:00;;;;;;;1.53;1.10;;;25.30;57.10;;;;;;5055089;28;20441;-84
2022/02/20 00:26:27;;;;;;;1.30;1.10;;;25.30;57.10;;;;;;5055113;28;20445;-83
2022/02/20 00:28:54;;;;;;;1.27;1.10;;;25.30;57.10;;;;;;5054975;28;20480;-83
2022/02/20 00:31:20;;;;;;;2.13;1.40;;;25.30;57.10;;;;;;5054822;28;20994;-84
2022/02/20 00:33:47;;;;;;;1.23;1.03;;;25.20;57.00;;;;;;5054832;28;20442;-84
2022/02/20 00:36:15;;;;;;;1.10;1.00;;;25.20;57.00;;;;;;5054997;28;20943;-84
2022/02/20 00:38:42;;;;;;;1.33;1.23;;;25.20;57.10;;;;;;5054783;28;20473;-83
2022/02/20 00:41:09;;;;;;;1.30;1.20;;;25.20;57.10;;;;;;5054263;28;20441;-84
2022/02/20 00:43:35;;;;;;;1.43;1.10;;;25.20;57.10;;;;;;5055036;28;20442;-84
2022/02/20 00:46:02;;;;;;;1.40;1.20;;;25.20;57.10;;;;;;5054841;28;20464;-84
2022/02/20 00:48:29;;;;;;;1.30;1.10;;;25.20;57.10;;;;;;5054650;28;20441;-84
2022/02/20 00:50:55;;;;;;;1.97;1.23;;;25.20;57.10;;;;;;5054478;28;20438;-84
2022/02/20 00:53:25;;;;;;;1.43;1.10;;;25.20;57.00;;;;;;5054590;28;20441;-84
2022/02/20 00:55:53;;;;;;;1.30;0.97;;;25.20;57.00;;;;;;5054580;28;20527;-84
2022/02/20 00:58:19;;;;;;;1.80;1.30;;;25.20;57.00;;;;;;5054511;28;20449;-84
2022/02/20 01:00:46;;;;;;;1.30;1.00;;;25.20;57.00;;;;;;5054496;28;20449;-84
2022/02/20 01:03:13;;;;;;;1.10;1.00;;;25.20;57.00;;;;;;5054491;28;20433;-84
2022/02/20 01:05:41;;;;;;;1.10;1.00;;;25.20;57.00;;;;;;5054317;28;20437;-84
2022/02/20 01:08:08;;;;;;;1.93;1.00;;;25.20;57.00;;;;;;5054274;28;20442;-84
2022/02/20 01:10:37;;;;;;;1.30;1.10;;;25.20;57.00;;;;;;5054198;28;20473;-84
2022/02/20 01:13:04;;;;;;;1.20;1.10;;;25.20;57.00;;;;;;5054224;28;20546;-84
2022/02/20 01:15:30;;;;;;;1.30;1.03;;;25.10;57.00;;;;;;5054144;28;20483;-83
2022/02/20 01:17:57;;;;;;;1.10;0.90;;;25.10;56.90;;;;;;5054122;28;20438;-84
2022/02/20 01:20:24;;;;;;;1.30;1.20;;;25.10;56.90;;;;;;5054058;28;20446;-84
2022/02/20 01:22:51;;;;;;;1.40;1.13;;;25.10;56.90;;;;;;5054114;28;20433;-84
2022/02/20 01:25:18;;;;;;;1.40;1.20;;;25.20;56.90;;;;;;5053991;28;20465;-84
2022/02/20 01:27:46;;;;;;;1.20;0.90;;;25.10;56.90;;;;;;5053904;28;20449;-84
2022/02/20 01:30:13;;;;;;;1.10;1.00;;;25.10;56.90;;;;;;5053829;28;20441;-84
2022/02/20 01:32:39;;;;;;;1.40;1.20;;;25.10;56.90;;;;;;5053834;28;20485;-84
2022/02/20 01:35:07;;;;;;;1.40;1.10;;;25.10;56.80;;;;;;5054052;28;20449;-84
2022/02/20 01:37:34;;;;;;;1.43;1.03;;;25.10;56.80;;;;;;5053480;28;20983;-84
2022/02/20 01:40:01;;;;;;;1.97;1.10;;;25.10;56.80;;;;;;5053943;28;20438;-84
2022/02/20 01:42:27;;;;;;;1.40;1.00;;;25.10;56.80;;;;;;5053779;28;20461;-84
2022/02/20 01:44:56;;;;;;;1.07;0.87;;;25.10;56.80;;;;;;5053716;28;20438;-84
2022/02/20 01:47:24;;;;;;;1.20;0.90;;;25.10;56.80;;;;;;5053559;28;20441;-84
2022/02/20 01:49:51;;;;;;;1.70;1.20;;;25.10;56.80;;;;;;5053483;28;20881;-84
2022/02/20 01:52:18;;;;;;;1.67;1.17;;;25.00;56.80;;;;;;5052712;28;20474;-84
2022/02/20 01:54:45;;;;;;;1.63;1.37;;;25.00;56.80;;;;;;5053353;28;20442;-84
2022/02/20 01:57:11;;;;;;;1.10;0.87;;;25.00;56.80;;;;;;5053444;28;20445;-84
2022/02/20 01:59:38;;;;;;;1.10;0.90;;;25.00;56.80;;;;;;5053469;28;20453;-84
2022/02/20 02:02:06;;;;;;;1.20;0.93;;;25.00;56.80;;;;;;5053454;28;20442;-84
2022/02/20 02:04:33;;;;;;;1.00;0.90;;;25.00;56.80;;;;;;5053287;28;20441;-84
2022/02/20 02:07:01;;;;;;;1.23;1.00;;;25.00;56.80;;;;;;5053367;28;20443;-84
2022/02/20 02:09:27;;;;;;;2.27;1.03;;;25.00;56.80;;;;;;5053294;28;20469;-83
2022/02/20 02:11:54;;;;;;;1.10;1.00;;;25.00;56.70;;;;;;5053240;28;20486;-84
2022/02/20 02:14:21;;;;;;;1.20;1.10;;;25.00;56.80;;;;;;5053138;28;20446;-84
2022/02/20 02:16:48;;;;;;;1.17;1.07;;;25.00;56.80;;;;;;5053104;28;20442;-84
2022/02/20 02:19:16;;;;;;;1.20;1.07;;;25.00;56.80;;;;;;5053380;28;20442;-84
2022/02/20 02:21:43;;;;;;;1.73;1.17;;;24.90;56.70;;;;;;5053114;28;20450;-84
2022/02/20 02:24:11;;;;;;;2.70;1.00;;;24.90;56.70;;;;;;5053491;28;20442;-84
2022/02/20 02:26:39;;;;;;;1.10;0.90;;;25.00;56.70;;;;;;5053084;28;20442;-83
2022/02/20 02:29:07;;;;;;;1.20;0.97;;;24.90;56.70;;;;;;5052942;28;20806;-84
2022/02/20 02:31:33;;;;;;;1.30;1.07;;;24.90;56.70;;;;;;5052950;28;20955;-84
2022/02/20 02:34:01;;;;;;;1.00;0.80;;;24.90;56.60;;;;;;5053086;28;20442;-84
2022/02/20 02:36:28;;;;;;;1.03;0.87;;;24.90;56.70;;;;;;5053072;28;20442;-84
2022/02/20 02:38:55;;;;;;;1.37;1.20;;;24.90;56.70;;;;;;5052961;28;20837;-84
2022/02/20 02:41:23;;;;;;;1.10;1.00;;;24.90;56.70;;;;;;5053290;28;20438;-84
2022/02/20 02:43:51;;;;;;;1.10;0.80;;;24.90;56.70;;;;;;5053179;28;20441;-83
2022/02/20 02:46:18;;;;;;;1.23;0.87;;;24.90;56.70;;;;;;5052989;28;20847;-84
2022/02/20 02:48:48;;;;;;;1.20;0.80;;;24.80;56.60;;;;;;5052938;28;20808;-84
2022/02/20 02:51:15;;;;;;;1.00;0.70;;;24.80;56.70;;;;;;5052899;28;20495;-84
2022/02/20 02:53:41;;;;;;;1.10;1.00;;;24.80;56.70;;;;;;5052971;28;20473;-84
2022/02/20 02:56:08;;;;;;;1.47;0.90;;;24.80;56.70;;;;;;5052802;28;20453;-84
2022/02/20 02:58:36;;;;;;;1.00;0.80;;;24.80;56.60;;;;;;5052847;28;20938;-84
2022/02/20 03:01:03;;;;;;;1.27;1.13;;;24.80;56.60;;;;;;5053035;28;20520;-84
2022/02/20 03:03:30;;;;;;;1.10;0.80;;;24.80;56.60;;;;;;5052868;28;20440;-84
2022/02/20 03:05:58;;;;;;;1.10;0.80;;;24.90;56.70;;;;;;5056640;28;20445;-84
2022/02/20 03:08:25;;;;;;;1.00;0.73;;;24.80;56.60;;;;;;5056484;28;20556;-84
2022/02/20 03:10:52;;;;;;;1.00;0.80;;;24.80;56.70;;;;;;5056509;28;20448;-84
2022/02/20 03:13:18;;;;;;;1.33;0.90;;;24.80;56.70;;;;;;5056404;28;20492;-84
2022/02/20 03:15:47;;;;;;;1.13;0.90;;;24.80;56.60;;;;;;5056529;28;20442;-84
2022/02/20 03:18:13;;;;;;;1.50;1.00;;;24.80;56.60;;;;;;5056488;28;20946;-84
2022/02/20 03:20:40;;;;;;;1.10;0.80;;;24.80;56.60;;;;;;5056384;28;21018;-84
2022/02/20 03:23:07;;;;;;;1.10;0.90;;;24.80;56.60;;;;;;5056555;28;20442;-83
2022/02/20 03:25:34;;;;;;;1.33;1.10;;;24.70;56.60;;;;;;5056362;28;20444;-84
2022/02/20 03:28:00;;;;;;;1.30;0.90;;;24.80;56.60;;;;;;5056241;28;20445;-83
2022/02/20 03:30:27;;;;;;;1.00;0.80;;;24.80;56.60;;;;;;5056113;28;20438;-84
2022/02/20 03:32:55;;;;;;;1.00;0.80;;;24.70;56.50;;;;;;5056136;28;20481;-84
2022/02/20 03:35:22;;;;;;;1.93;1.00;;;24.70;56.50;;;;;;5056100;28;20445;-84
2022/02/20 03:37:49;;;;;;;1.40;1.00;;;24.70;56.50;;;;;;5055810;28;20469;-84
2022/02/20 03:40:16;;;;;;;1.30;0.93;;;24.70;57.10;;;;;;5055950;28;20465;-84
2022/02/20 03:42:43;;;;;;;1.30;1.10;;;24.70;56.50;;;;;;5056092;28;20465;-84
2022/02/20 03:45:10;;;;;;;1.20;1.00;;;24.70;56.50;;;;;;5055881;28;20814;-84
2022/02/20 03:47:37;;;;;;;1.10;0.90;;;24.70;56.50;;;;;;5055893;28;20445;-84
2022/02/20 03:50:06;;;;;;;1.10;0.80;;;24.70;56.50;;;;;;5055875;28;20446;-83
2022/02/20 03:52:34;;;;;;;1.30;0.90;;;24.70;56.50;;;;;;5055760;28;20492;-83
2022/02/20 03:55:01;;;;;;;1.00;0.70;;;24.70;56.50;;;;;;5055721;28;20450;-83
2022/02/20 03:57:32;;;;;;;1.23;0.73;;;24.80;56.60;;;;;;5055814;28;20936;-84
2022/02/20 03:59:58;;;;;;;1.17;0.80;;;24.60;56.50;;;;;;5055518;28;20449;-84
2022/02/20 04:02:27;;;;;;;1.00;0.87;;;24.70;56.50;;;;;;5055471;28;20442;-83
2022/02/20 04:04:54;;;;;;;1.20;0.80;;;24.70;56.50;;;;;;5055669;28;20999;-84
2022/02/20 04:07:22;;;;;;;1.20;0.90;;;24.70;56.50;;;;;;5055594;28;20437;-84
2022/02/20 04:09:49;;;;;;;1.10;0.80;;;24.70;56.50;;;;;;5055815;28;20446;-84
2022/02/20 04:12:15;;;;;;;1.10;0.73;;;24.70;56.50;;;;;;5055421;28;20462;-84
2022/02/20 04:14:42;;;;;;;1.20;0.80;;;24.60;56.50;;;;;;5055390;28;20442;-84
2022/02/20 04:17:09;;;;;;;1.20;0.90;;;24.60;56.50;;;;;;5054201;28;20453;-84
2022/02/20 04:19:36;;;;;;;1.10;0.80;;;24.60;56.50;;;;;;5055349;28;20437;-84
2022/02/20 04:22:03;;;;;;;1.10;0.90;;;24.70;56.60;;;;;;5055366;28;20445;-84
2022/02/20 04:24:31;;;;;;;1.17;0.80;;;24.60;56.40;;;;;;5055390;28;20444;-84
2022/02/20 04:26:57;;;;;;;1.17;0.83;;;24.60;56.50;;;;;;5055158;28;20441;-84
2022/02/20 04:29:24;;;;;;;1.10;0.90;;;24.60;56.40;;;;;;5055111;28;20469;-84
2022/02/20 04:31:51;;;;;;;1.00;0.80;;;24.60;56.40;;;;;;5055026;28;20446;-84
2022/02/20 04:34:18;;;;;;;1.20;0.90;;;24.60;56.40;;;;;;5055040;28;20489;-84
2022/02/20 04:36:44;;;;;;;1.00;0.80;;;24.60;56.50;;;;;;5054934;28;20438;-84
2022/02/20 04:39:11;;;;;;;1.10;0.90;;;24.60;56.50;;;;;;5054780;28;20473;-84
2022/02/20 04:41:39;;;;;;;1.63;1.10;;;24.60;56.50;;;;;;5054831;28;20481;-84
2022/02/20 04:44:06;;;;;;;1.37;0.80;;;24.60;56.50;;;;;;5054748;28;20442;-84
2022/02/20 04:46:35;;;;;;;1.27;0.80;;;24.60;56.50;;;;;;5054755;28;20445;-84
2022/02/20 04:49:02;;;;;;;1.10;0.80;;;24.70;56.60;;;;;;5054618;28;20795;-84
2022/02/20 04:51:29;;;;;;;1.53;0.80;;;24.50;56.50;;;;;;5054857;28;20438;-84
2022/02/20 04:53:56;;;;;;;1.10;0.80;;;24.50;56.50;;;;;;5054637;28;20987;-84
2022/02/20 04:56:22;;;;;;;1.10;0.80;;;24.70;56.60;;;;;;5054454;28;20445;-84
2022/02/20 04:58:50;;;;;;;1.60;0.83;;;24.60;56.50;;;;;;5054678;28;20441;-84
2022/02/20 05:01:17;;;;;;;1.27;0.93;;;24.60;56.40;;;;;;5054479;28;20931;-84
2022/02/20 05:03:44;;;;;;;1.13;0.77;;;24.60;56.50;;;;;;5054480;28;20446;-84
2022/02/20 05:06:11;;;;;;;1.00;0.77;;;24.70;56.50;;;;;;5054411;28;20430;-84
2022/02/20 05:08:38;;;;;;;1.10;1.00;;;24.60;56.40;;;;;;5054378;28;20460;-84
2022/02/20 05:11:04;;;;;;;1.40;0.90;;;24.60;56.30;;;;;;5054137;28;20437;-84
2022/02/20 05:13:31;;;;;;;1.00;0.80;;;24.70;56.40;;;;;;5054258;28;20497;-84
2022/02/20 05:15:59;;;;;;;1.10;0.70;;;24.60;56.30;;;;;;5054397;28;20434;-84
2022/02/20 05:18:26;;;;;;;1.10;0.80;;;24.60;56.20;;;;;;5054273;28;20804;-84
2022/02/20 05:20:54;;;;;;;1.17;0.80;;;24.60;56.30;;;;;;5054213;28;20437;-84
2022/02/20 05:23:21;;;;;;;1.37;0.80;;;24.70;56.30;;;;;;5054430;28;20442;-84
2022/02/20 05:25:48;;;;;;;1.03;0.80;;;24.70;56.30;;;;;;5054134;28;20437;-84
2022/02/20 05:28:15;;;;;;;1.00;0.80;;;24.70;56.20;;;;;;5053732;28;20446;-84
2022/02/20 05:30:41;;;;;;;1.10;0.83;;;24.70;56.20;;;;;;5053972;28;20442;-84
2022/02/20 05:33:09;;;;;;;1.30;0.97;;;24.70;56.10;;;;;;5053970;28;20476;-84
2022/02/20 05:35:36;;;;;;;1.13;0.73;;;24.80;56.20;;;;;;5053761;28;20445;-84
2022/02/20 05:38:03;;;;;;;1.43;0.80;;;24.70;56.10;;;;;;5053407;28;20473;-84
2022/02/20 05:40:30;;;;;;;1.00;0.80;;;24.80;56.10;;;;;;5053978;28;20948;-84
2022/02/20 05:42:57;;;;;;;1.10;0.80;;;24.80;56.00;;;;;;5053621;28;20811;-84
2022/02/20 05:45:24;;;;;;;1.30;0.80;;;24.80;56.60;;;;;;5053974;28;20777;-84
2022/02/20 05:47:51;;;;;;;1.20;0.80;;;24.80;56.00;;;;;;5053614;28;20442;-84
2022/02/20 05:50:19;;;;;;;1.00;0.77;;;24.80;55.90;;;;;;5053580;28;20438;-84
2022/02/20 05:52:46;;;;;;;1.07;0.80;;;24.80;55.90;;;;;;5053509;28;20943;-84
2022/02/20 05:55:12;;;;;;;1.10;0.80;;;24.80;55.90;;;;;;5053560;28;20446;-84
2022/02/20 05:57:44;;;;;;;1.00;0.87;;;24.80;55.90;;;;;;5053718;28;20466;-84
2022/02/20 06:00:12;;;;;;;1.10;1.00;;;24.90;55.90;;;;;;5053438;28;20453;-84
2022/02/20 06:02:39;;;;;;;1.00;0.73;;;24.90;55.90;;;;;;5053516;28;20888;-83
2022/02/20 06:05:06;;;;;;;1.10;0.70;;;24.90;55.80;;;;;;5053443;28;20441;-84
2022/02/20 06:07:34;;;;;;;1.20;0.80;;;24.80;55.80;;;;;;5053143;28;20936;-84
2022/02/20 06:10:02;;;;;;;1.10;0.73;;;24.80;55.80;;;;;;5053162;28;20433;-84
2022/02/20 06:12:28;;;;;;;1.20;0.93;;;24.80;55.80;;;;;;5053420;28;20460;-84
2022/02/20 06:14:55;;;;;;;1.00;0.73;;;24.90;55.80;;;;;;5053338;28;20546;-83
2022/02/20 06:17:22;;;;;;;0.90;0.70;;;24.90;55.80;;;;;;5053167;28;20438;-84
2022/02/20 06:19:49;;;;;;;1.07;0.80;;;24.90;55.80;;;;;;5053387;28;20445;-83
2022/02/20 06:22:15;;;;;;;0.90;0.70;;;24.90;55.70;;;;;;5053050;28;20445;-83
2022/02/20 06:24:44;;;;;;;1.00;0.73;;;24.90;55.70;;;;;;5053511;28;20927;-83
2022/02/20 06:27:10;;;;;;;1.07;0.73;;;25.00;55.70;;;;;;5053241;28;20450;-84
2022/02/20 06:29:38;;;;;;;1.33;0.70;;;25.00;55.70;;;;;;5053064;28;20438;-84
2022/02/20 06:32:05;;;;;;;1.30;0.80;;;25.00;55.70;;;;;;5053180;28;20438;-84
2022/02/20 06:34:32;;;;;;;1.23;0.80;;;25.00;55.60;;;;;;5053173;28;20489;-84
2022/02/20 06:36:59;;;;;;;1.13;0.80;;;25.00;55.60;;;;;;5053005;28;20438;-84
2022/02/20 06:39:26;;;;;;;0.90;0.70;;;25.00;55.60;;;;;;5054476;28;20465;-84
2022/02/20 06:41:54;;;;;;;1.30;0.80;;;25.00;55.50;;;;;;5057034;28;20496;-84
2022/02/20 06:44:21;;;;;;;1.00;0.80;;;25.00;55.50;;;;;;5057308;28;20442;-84
2022/02/20 06:46:48;;;;;;;1.00;0.70;;;25.00;55.50;;;;;;5057309;28;20437;-84
2022/02/20 06:49:15;;;;;;;1.00;0.70;;;25.00;55.50;;;;;;5056106;28;20445;-83
2022/02/20 06:51:42;;;;;;;0.90;0.70;;;25.00;55.50;;;;;;5055746;28;20430;-83
2022/02/20 06:54:09;;;;;;;0.97;0.70;;;25.10;55.50;;;;;;5056048;28;20504;-83
2022/02/20 06:56:35;;;;;;;1.60;0.90;;;25.10;55.50;;;;;;5056240;28;20440;-84
2022/02/20 06:59:03;;;;;;;1.00;0.70;;;25.10;55.50;;;;;;5056778;28;20806;-83
2022/02/20 07:01:30;;;;;;;1.30;0.80;;;25.10;55.40;;;;;;5056871;28;20444;-84
2022/02/20 07:03:57;;;;;;;0.90;0.70;;;25.10;55.40;;;;;;5055544;28;20796;-82
2022/02/20 07:06:24;;;;;;;1.00;0.60;;;25.20;55.50;;;;;;5055154;28;20441;-84
2022/02/20 07:08:52;;;;;;;1.00;0.70;;;25.10;55.40;;;;;;5056437;28;20446;-84
2022/02/20 07:11:19;;;;;;;1.30;0.80;;;25.20;55.40;;;;;;5056423;28;20449;-84
2022/02/20 07:13:45;;;;;;;1.10;0.90;;;25.10;55.40;;;;;;5056520;28;20473;-84
2022/02/20 07:16:13;;;;;;;1.20;0.90;;;25.10;55.40;;;;;;5056467;28;20437;-83
2022/02/20 07:18:40;;;;;;;1.00;0.70;;;25.20;55.40;;;;;;5056413;28;20799;-83
2022/02/20 07:21:07;;;;;;;1.40;0.90;;;25.20;55.40;;;;;;5056257;28;20442;-83
2022/02/20 07:23:34;;;;;;;1.13;0.73;;;25.20;55.40;;;;;;5056295;28;20450;-84
2022/02/20 07:26:00;;;;;;;1.40;0.80;;;25.20;55.40;;;;;;5056220;28;20441;-83
2022/02/20 07:28:27;;;;;;;1.00;0.83;;;25.20;55.40;;;;;;5056165;28;20441;-84
2022/02/20 07:30:54;;;;;;;1.00;0.80;;;25.20;55.40;;;;;;5056254;28;20441;-84
2022/02/20 07:33:22;;;;;;;1.20;0.80;;;25.20;55.40;;;;;;5056064;28;20849;-83
2022/02/20 07:35:48;;;;;;;1.03;0.70;;;25.20;55.40;;;;;;5056275;28;20433;-84
2022/02/20 07:38:15;;;;;;;1.00;0.70;;;25.20;55.40;;;;;;5065151;28;20834;-83
2022/02/20 07:40:42;;;;;;;1.10;0.70;;;25.20;55.40;;;;;;5075967;28;20445;-83
2022/02/20 07:43:08;;;;;;;1.40;0.90;;;25.20;56.00;;;;;;5075801;28;20465;-83
2022/02/20 07:45:35;;;;;;;1.43;0.87;;;25.20;55.40;;;;;;5076145;28;20783;-83
2022/02/20 07:48:03;;;;;;;1.10;0.80;;;25.30;55.50;;;;;;5075709;28;20450;-83
2022/02/20 07:50:33;;;;;;;1.00;0.80;;;25.20;55.40;;;;;;5075827;28;20512;-83
2022/02/20 07:53:01;;;;;;;1.17;0.77;;;25.20;55.50;;;;;;5075888;28;20799;-83
2022/02/20 07:55:28;;;;;;;1.80;1.10;;;25.20;55.40;;;;;;5075663;28;20523;-83
2022/02/20 07:57:55;;;;;;;1.30;0.80;;;25.20;55.50;;;;;;5075702;28;20437;-83
2022/02/20 08:00:27;;;;;;;1.57;1.03;;;25.30;55.50;;;;;;5075592;28;20492;-83
2022/02/20 08:02:55;;;;;;;1.20;0.80;;;25.20;55.50;;;;;;5075786;28;20491;-84
2022/02/20 08:05:21;;;;;;;1.10;0.70;;;25.20;56.10;;;;;;5075385;28;20957;-84
2022/02/20 08:07:50;;;;;;;1.63;0.80;;;25.20;55.60;;;;;;5075312;28;20455;-83
2022/02/20 08:10:16;;;;;;;1.33;0.93;;;25.10;55.50;;;;;;5075581;28;20440;-84
2022/02/20 08:12:43;;;;;;;1.40;0.93;;;25.20;55.60;;;;;;5075441;28;20457;-84
2022/02/20 08:15:10;;;;;;;1.27;0.80;;;25.20;55.60;;;;;;5075250;28;20967;-83
2022/02/20 08:17:42;;;;;;;1.07;0.80;;;25.20;55.60;;;;;;5075283;28;20788;-83
2022/02/20 08:20:10;;;;;;;1.20;1.10;;;25.20;55.60;;;;;;5075259;28;20502;-83
2022/02/20 08:22:36;;;;;;;1.60;0.90;;;25.20;55.60;;;;;;5075242;28;20444;-83
2022/02/20 08:25:05;;;;;;;1.10;0.80;;;25.30;55.70;;;;;;5074978;28;20452;-83
2022/02/20 08:27:34;;;;;;;1.77;0.80;;;25.20;55.70;;;;;;5074996;28;20444;-83
2022/02/20 08:30:01;;;;;;;1.30;0.90;;;25.20;55.60;;;;;;5075073;28;20432;-83
2022/02/20 08:32:29;;;;;;;1.10;0.80;;;25.20;55.60;;;;;;5074906;28;20449;-83
2022/02/20 08:34:55;;;;;;;1.10;0.90;;;25.20;55.70;;;;;;5074795;28;20480;-83
2022/02/20 08:37:22;;;;;;;1.40;0.90;;;25.20;55.70;;;;;;5074574;28;20813;-84
2022/02/20 08:39:49;;;;;;;1.60;0.80;;;25.20;55.70;;;;;;5074935;28;20441;-83
2022/02/20 08:42:17;;;;;;;2.13;1.00;;;25.20;55.70;;;;;;5074744;28;20465;-83
2022/02/20 08:44:44;;;;;;;1.30;0.83;;;25.20;55.70;;;;;;5075048;28;20445;-90
2022/02/20 08:47:11;;;;;;;1.20;0.90;;;25.20;55.60;;;;;;5034975;28;20443;-81
2022/02/20 08:49:38;;;;;;;1.20;0.80;;;25.30;55.70;;;;;;5034748;28;20446;-87
2022/02/20 08:52:06;;;;;;;1.47;1.20;;;25.40;55.80;;;;;;5034828;28;20445;-80
2022/02/20 08:54:32;;;;;;;2.33;1.33;;;25.30;55.80;;;;;;5034728;28;20482;-89
2022/02/20 08:57:00;;;;;;;1.20;0.90;;;25.30;55.80;;;;;;5034544;28;20439;-89
2022/02/20 08:59:28;;;;;;;1.30;0.90;;;25.20;55.80;;;;;;5035160;28;20812;-90
2022/02/20 09:01:55;;;;;;;1.10;0.80;;;25.20;55.90;;;;;;5034351;28;20450;-79
2022/02/20 09:04:22;;;;;;;1.40;0.90;;;25.20;55.90;;;;;;5036891;28;20812;-81
2022/02/20 09:06:48;;;;;;;2.30;0.90;;;25.10;55.90;;;;;;5074578;28;20449;-80
2022/02/20 09:09:15;;;;;;;1.27;0.97;;;25.10;56.10;;;;;;5075735;28;20954;-80
2022/02/20 09:11:43;;;;;;;1.40;0.80;;;25.20;56.80;;;;;;5076028;28;20461;-94
2022/02/20 09:14:10;;;;;;;1.67;1.00;;;25.20;56.70;;;;;;5075274;28;20469;-95
2022/02/20 09:16:38;;;;;;;1.23;0.80;;;25.20;56.20;;;;;;5075848;28;20448;-80
2022/02/20 09:19:06;;;;;;;1.70;0.77;;;25.20;56.30;;;;;;5076566;28;20460;-80
2022/02/20 09:21:33;;;;;;;3.10;0.97;;;25.10;56.20;;;;;;5078709;28;20441;-89
2022/02/20 09:24:00;;;;;;;1.50;1.00;;;25.20;56.40;;;;;;5079657;28;20923;-94
2022/02/20 09:26:26;;;;;;;3.60;1.10;;;25.10;56.50;;;;;;5077213;28;20448;-80
2022/02/20 09:28:53;;;;;;;1.33;0.90;;;25.20;56.50;;;;;;5076200;28;20435;-80
2022/02/20 09:31:20;;;;;;;1.80;0.90;;;25.20;56.60;;;;;;5074480;28;20441;-79
2022/02/20 09:33:48;;;;;;;2.37;0.90;;;25.20;56.60;;;;;;5074204;28;20432;-95
2022/02/20 09:36:15;;;;;;;1.47;1.20;;;25.20;56.60;;;;;;5073956;28;20436;-80
2022/02/20 09:38:42;;;;;;;2.47;1.00;;;25.20;56.60;;;;;;5073635;28;20472;-93
2022/02/20 09:41:10;;;;;;;1.87;0.90;;;25.20;56.70;;;;;;5073536;28;20860;-79
2022/02/20 09:43:38;;;;;;;2.10;1.17;;;25.20;56.70;;;;;;5073562;28;20966;-80
2022/02/20 09:46:06;;;;;;;2.67;1.13;;;25.30;56.60;;;;;;5065996;28;20444;-92
2022/02/20 09:48:34;;;;;;;1.73;1.50;;;25.40;56.70;;;;;;5063264;28;20491;-83
2022/02/20 09:51:02;;;;;;;1.40;1.07;;;25.40;56.60;;;;;;5059256;28;20433;-85
2022/02/20 09:53:29;;;;;;;2.00;1.50;;;25.50;56.30;;;;;;5071010;28;20441;-85
2022/02/20 09:55:56;;;;;;;5.40;2.40;;;25.50;56.20;;;;;;5055732;28;20474;-84
2022/02/20 09:58:23;;;;;;;3.43;2.40;;;25.40;56.60;;;;;;5053594;28;20445;-82
2022/02/20 10:00:52;;;;;;;3.30;1.90;;;25.50;56.70;;;;;;5053527;28;20457;-81
2022/02/20 10:03:31;;;;;;;3.20;2.43;;;25.40;56.80;;;;;;5053542;28;20438;-80
2022/02/20 10:05:58;;;;;;;3.83;2.07;;;25.40;57.00;;;;;;5054069;28;20452;-95
2022/02/20 10:08:26;;;;;;;2.43;1.87;;;25.40;57.10;;;;;;5053284;28;20445;-87
2022/02/20 10:10:52;;;;;;;5.47;1.80;;;25.40;56.80;;;;;;5053721;28;20442;-80
2022/02/20 10:13:26;;;;;;;3.20;2.27;;;25.40;56.90;;;;;;5053037;28;20446;-93
2022/02/20 10:15:54;;;;;;;3.60;2.07;;;25.40;57.00;;;;;;5052568;28;20493;-81
2022/02/20 10:18:22;;;;;;;4.37;2.30;;;25.40;57.00;;;;;;5054007;28;20449;-96
2022/02/20 10:20:59;;;;;;;2.50;1.83;;;25.40;57.00;;;;;;5057408;28;20437;-80
2022/02/20 10:23:38;;;;;;;2.53;2.33;;;25.40;57.10;;;;;;5058073;28;20945;-80
2022/02/20 10:26:12;;;;;;;2.50;1.90;;;25.40;57.10;;;;;;5062630;28;20517;-80
2022/02/20 10:28:59;;;;;;;2.57;1.90;;;25.40;57.20;;;;;;5060417;28;20441;-96
2022/02/20 10:31:44;;;;;;;3.87;2.20;;;25.40;57.30;;;;;;5043881;28;20442;-81
2022/02/20 10:34:12;;;;;;;6.00;1.80;;;25.40;57.30;;;;;;5043298;28;20465;-84
2022/02/20 10:36:50;;;;;;;1.83;1.70;;;25.40;57.00;;;;;;5038909;28;20438;-83
2022/02/20 10:39:23;;;;;;;3.80;2.27;;;25.40;57.30;;;;;;5050688;28;20975;-84
2022/02/20 10:41:51;;;;;;;2.20;1.53;;;25.50;57.10;;;;;;5053360;28;20486;-84
2022/02/20 10:44:19;;;;;;;2.60;1.60;;;25.60;57.20;;;;;;5053473;28;20433;-84
2022/02/20 10:46:46;;;;;;;3.20;1.83;;;25.60;57.10;;;;;;5053373;28;20525;-84
2022/02/20 10:49:26;;;;;;;2.03;1.83;;;25.70;57.10;;;;;;5053541;28;20630;-85
2022/02/20 10:51:54;;;;;;;2.90;2.30;;;25.80;57.00;;;;;;5053559;28;20441;-84
2022/02/20 10:54:24;;;;;;;5.60;2.43;;;25.80;57.10;;;;;;5053321;28;20442;-84
2022/02/20 10:56:51;;;;;;;2.90;2.10;;;25.80;57.00;;;;;;5053392;28;20438;-84
2022/02/20 10:59:21;;;;;;;1.63;1.53;;;25.90;57.00;;;;;;5053115;28;20932;-84
2022/02/20 11:01:49;;;;;;;2.60;1.63;;;25.90;57.00;;;;;;5053373;28;20860;-84
2022/02/20 11:04:17;;;;;;;2.23;1.97;;;25.90;56.90;;;;;;5053048;28;21005;-84
2022/02/20 11:06:47;;;;;;;1.37;1.23;;;26.00;56.80;;;;;;5053250;28;20433;-86
2022/02/20 11:09:15;;;;;;;3.30;1.60;;;26.00;56.70;;;;;;5052949;28;20454;-84
2022/02/20 11:11:49;;;;;;;1.80;1.70;;;26.00;56.70;;;;;;5053172;28;20508;-84
2022/02/20 11:14:17;;;;;;;4.63;1.63;;;26.00;56.80;;;;;;5052973;28;20426;-84
2022/02/20 11:16:47;;;;;;;1.90;1.33;;;26.10;56.70;;;;;;5053064;28;20496;-84
2022/02/20 11:19:16;;;;;;;2.87;2.37;;;26.10;56.80;;;;;;5053247;28;20449;-85
2022/02/20 11:21:44;;;;;;;2.47;1.63;;;26.10;56.80;;;;;;5053369;28;20533;-84
2022/02/20 11:24:12;;;;;;;2.60;2.00;;;26.10;56.80;;;;;;5052954;28;20464;-84
2022/02/20 11:26:44;;;;;;;3.00;1.50;;;26.10;56.80;;;;;;5051662;28;20437;-84
2022/02/20 11:29:12;;;;;;;1.67;1.40;;;26.10;56.80;;;;;;5056887;28;20512;-84
2022/02/20 11:31:42;;;;;;;1.47;1.37;;;26.10;56.80;;;;;;5046400;28;20442;-84
2022/02/20 11:34:10;;;;;;;3.10;1.80;;;26.00;56.60;;;;;;5056734;28;20433;-84
2022/02/20 11:36:37;;;;;;;2.27;1.40;;;26.10;56.70;;;;;;5056818;28;20492;-83
2022/02/20 11:39:10;;;;;;;2.70;1.47;;;26.10;56.60;;;;;;5064150;28;20464;-83
2022/02/20 11:41:38;;;;;;;1.50;1.40;;;26.20;56.70;;;;;;5062018;28;20457;-84
2022/02/20 11:44:15;;;;;;;1.53;1.43;;;26.20;56.60;;;;;;5066847;28;20433;-83
2022/02/20 11:46:50;;;;;;;1.70;1.47;;;26.20;56.60;;;;;;5066030;28;20433;-84
2022/02/20 11:49:29;;;;;;;1.93;1.50;;;26.20;56.60;;;;;;5065344;28;20425;-84
2022/02/20 11:52:09;;;;;;;1.60;1.30;;;26.20;56.60;;;;;;5068029;28;20429;-84
2022/02/20 11:54:38;;;;;;;1.77;1.40;;;26.20;56.60;;;;;;5062069;28;20511;-84
2022/02/20 11:57:26;;;;;;;1.40;1.20;;;26.20;56.60;;;;;;5065984;28;20433;-84
2022/02/20 12:00:20;;;;;;;1.73;1.60;;;26.20;56.70;;;;;;5064025;28;20537;-84
2022/02/20 12:03:17;;;;;;;2.53;1.70;;;26.20;56.60;;;;;;5065912;28;20765;-84
2022/02/20 12:06:22;;;;;;;2.23;1.50;;;26.20;56.60;;;;;;5053307;28;20932;-84
2022/02/20 12:08:50;;;;;;;1.47;1.30;;;26.20;56.60;;;;;;5065916;28;20504;-84
2022/02/20 12:11:20;;;;;;;1.50;1.20;;;26.20;56.60;;;;;;5061284;28;20453;-84
2022/02/20 12:13:48;;;;;;;2.03;1.30;;;26.20;56.60;;;;;;5071810;28;20491;-84
2022/02/20 12:16:25;;;;;;;1.67;1.47;;;26.20;56.60;;;;;;5061606;28;20492;-84
2022/02/20 12:19:19;;;;;;;2.07;1.43;;;26.20;56.60;;;;;;5067434;28;20449;-84
2022/02/20 12:22:04;;;;;;;1.73;1.63;;;26.30;56.60;;;;;;5068179;28;20444;-84
2022/02/20 12:24:47;;;;;;;2.73;1.60;;;26.20;56.60;;;;;;5055127;28;20932;-84
2022/02/20 12:27:19;;;;;;;1.60;1.50;;;26.30;56.60;;;;;;5061236;28;20935;-84
2022/02/20 12:29:50;;;;;;;1.50;1.40;;;26.20;56.60;;;;;;5055898;28;20833;-94
2022/02/20 12:32:26;;;;;;;1.30;1.20;;;26.20;56.80;;;;;;5055803;28;20445;-96
2022/02/20 12:35:03;;;;;;;1.60;1.20;;;26.20;56.70;;;;;;5055592;28;20788;-86
2022/02/20 12:37:31;;;;;;;1.50;1.20;;;26.40;56.80;;;;;;5060583;28;20487;-94
2022/02/20 12:40:02;;;;;;;2.20;1.13;;;26.20;56.80;;;;;;5109712;23;20487;-81
2022/02/20 12:42:31;;;;;;;1.97;1.33;;;26.20;56.80;;;;;;5092921;28;20457;-96
2022/02/20 12:45:04;;;;;;;1.33;1.10;;;26.20;56.80;;;;;;5085786;28;20445;-80
2022/02/20 12:47:38;;;;;;;3.10;1.50;;;26.30;56.60;;;;;;5086840;28;20444;-96
2022/02/20 12:50:06;;;;;;;3.93;1.40;;;26.20;56.90;;;;;;5086842;28;20489;-80
2022/02/20 12:52:35;;;;;;;2.90;1.07;;;26.20;56.80;;;;;;5085562;28;20440;-96
2022/02/20 12:55:03;;;;;;;3.97;1.40;;;26.20;56.70;;;;;;5086221;28;20490;-82